sensor_id;sensor_type;location;lat;lon;timestamp;pressure;altitude;pressure_sealevel;temperature;humidity
69035;BME280;56091;55.756;37.412;2022-07-23T00:02:32;99014.69;;;19.19;59.83
69035;BME280;56091;55.756;37.412;2022-07-23T00:07:33;99012.09;;;19.14;60.01
69035;BME280;56091;55.756;37.412;2022-07-23T00:12:34;99009.69;;;19.12;60.01
69035;BME280;56091;55.756;37.412;2022-07-23T00:17:35;99007.75;;;19.04;60.16
69035;BME280;56091;55.756;37.412;2022-07-23T00:22:36;99016.13;;;19.07;60.45
69035;BME280;56091;55.756;37.412;2022-07-23T00:27:36;99018.69;;;19.04;60.58
69035;BME280;56091;55.756;37.412;2022-07-23T00:32:47;99002.72;;;18.88;61.29
69035;BME280;56091;55.756;37.412;2022-07-23T00:37:49;98999.44;;;18.78;61.72
69035;BME280;56091;55.756;37.412;2022-07-23T00:42:50;99020.31;;;18.73;62.05
69035;BME280;56091;55.756;37.412;2022-07-23T00:47:51;99025.91;;;18.68;62.51
69035;BME280;56091;55.756;37.412;2022-07-23T00:52:52;99023.09;;;18.51;62.91
69035;BME280;56091;55.756;37.412;2022-07-23T00:57:55;99029.50;;;18.46;63.41
69035;BME280;56091;55.756;37.412;2022-07-23T01:02:56;99025.44;;;18.44;63.60
69035;BME280;56091;55.756;37.412;2022-07-23T01:07:57;99031.38;;;18.37;64.13
69035;BME280;56091;55.756;37.412;2022-07-23T01:12:59;99032.00;;;18.34;64.41
69035;BME280;56091;55.756;37.412;2022-07-23T01:18:04;99011.53;;;18.23;64.27
69035;BME280;56091;55.756;37.412;2022-07-23T01:23:09;99001.75;;;18.22;64.53
69035;BME280;56091;55.756;37.412;2022-07-23T01:28:14;98974.16;;;18.01;64.70
69035;BME280;56091;55.756;37.412;2022-07-23T01:33:15;99022.00;;;18.29;64.46
69035;BME280;56091;55.756;37.412;2022-07-23T01:38:19;99024.94;;;18.33;64.67
69035;BME280;56091;55.756;37.412;2022-07-23T01:43:23;99016.09;;;18.36;64.92
69035;BME280;56091;55.756;37.412;2022-07-23T01:48:24;99010.63;;;18.36;64.45
69035;BME280;56091;55.756;37.412;2022-07-23T01:53:47;99018.09;;;18.44;64.80
69035;BME280;56091;55.756;37.412;2022-07-23T01:58:49;99024.53;;;18.48;64.29
69035;BME280;56091;55.756;37.412;2022-07-23T02:03:50;99017.19;;;18.58;64.48
69035;BME280;56091;55.756;37.412;2022-07-23T02:08:51;99007.88;;;18.59;64.52
69035;BME280;56091;55.756;37.412;2022-07-23T02:13:52;99010.03;;;18.70;63.87
69035;BME280;56091;55.756;37.412;2022-07-23T02:18:53;99010.34;;;18.78;63.97
69035;BME280;56091;55.756;37.412;2022-07-23T02:23:53;99018.94;;;18.85;63.61
69035;BME280;56091;55.756;37.412;2022-07-23T02:28:54;99015.28;;;18.98;63.40
69035;BME280;56091;55.756;37.412;2022-07-23T02:33:57;99020.47;;;19.08;62.86
69035;BME280;56091;55.756;37.412;2022-07-23T02:38:58;99029.06;;;19.33;62.27
69035;BME280;56091;55.756;37.412;2022-07-23T02:44:04;99019.41;;;19.36;61.58
69035;BME280;56091;55.756;37.412;2022-07-23T02:49:06;99024.34;;;19.16;62.36
69035;BME280;56091;55.756;37.412;2022-07-23T02:54:07;98988.56;;;18.86;63.26
69035;BME280;56091;55.756;37.412;2022-07-23T02:59:11;99022.09;;;19.18;62.98
69035;BME280;56091;55.756;37.412;2022-07-23T03:04:13;99005.84;;;19.13;62.26
69035;BME280;56091;55.756;37.412;2022-07-23T03:09:16;99010.63;;;18.99;62.87
69035;BME280;56091;55.756;37.412;2022-07-23T03:14:17;99034.13;;;19.08;63.18
69035;BME280;56091;55.756;37.412;2022-07-23T03:19:18;99031.53;;;19.12;63.31
69035;BME280;56091;55.756;37.412;2022-07-23T03:24:19;99030.94;;;19.15;62.91
69035;BME280;56091;55.756;37.412;2022-07-23T03:29:20;99016.25;;;19.02;63.14
69035;BME280;56091;55.756;37.412;2022-07-23T03:34:20;99027.22;;;19.20;63.34
69035;BME280;56091;55.756;37.412;2022-07-23T03:39:21;99043.19;;;19.26;62.93
69035;BME280;56091;55.756;37.412;2022-07-23T03:44:22;99044.50;;;19.38;62.83
69035;BME280;56091;55.756;37.412;2022-07-23T03:49:23;99038.34;;;19.23;63.14
69035;BME280;56091;55.756;37.412;2022-07-23T03:54:24;99031.63;;;19.47;62.61
69035;BME280;56091;55.756;37.412;2022-07-23T03:59:25;99035.00;;;19.61;62.49
69035;BME280;56091;55.756;37.412;2022-07-23T04:04:26;99033.47;;;19.78;61.90
69035;BME280;56091;55.756;37.412;2022-07-23T04:09:27;99033.44;;;19.95;61.03
69035;BME280;56091;55.756;37.412;2022-07-23T04:14:28;99033.28;;;20.09;61.05
69035;BME280;56091;55.756;37.412;2022-07-23T04:19:29;99042.63;;;20.17;61.04
69035;BME280;56091;55.756;37.412;2022-07-23T04:24:37;99042.44;;;20.22;61.46
69035;BME280;56091;55.756;37.412;2022-07-23T04:29:38;99018.91;;;20.29;60.79
69035;BME280;56091;55.756;37.412;2022-07-23T04:34:39;99038.06;;;20.47;60.00
69035;BME280;56091;55.756;37.412;2022-07-23T04:39:41;99056.50;;;20.76;59.51
69035;BME280;56091;55.756;37.412;2022-07-23T04:44:42;99029.72;;;20.82;59.41
69035;BME280;56091;55.756;37.412;2022-07-23T04:49:47;99041.91;;;21.02;58.39
69035;BME280;56091;55.756;37.412;2022-07-23T04:54:47;99045.19;;;21.16;58.69
69035;BME280;56091;55.756;37.412;2022-07-23T04:59:48;99041.38;;;21.38;57.73
69035;BME280;56091;55.756;37.412;2022-07-23T05:04:49;99042.78;;;21.53;56.95
69035;BME280;56091;55.756;37.412;2022-07-23T05:09:50;99040.88;;;21.66;57.16
69035;BME280;56091;55.756;37.412;2022-07-23T05:14:51;99036.88;;;21.84;56.11
69035;BME280;56091;55.756;37.412;2022-07-23T05:19:54;99034.09;;;22.06;56.71
69035;BME280;56091;55.756;37.412;2022-07-23T05:24:56;99049.75;;;22.26;55.27
69035;BME280;56091;55.756;37.412;2022-07-23T05:29:57;99023.47;;;22.37;54.54
69035;BME280;56091;55.756;37.412;2022-07-23T05:34:59;99027.06;;;22.63;54.24
69035;BME280;56091;55.756;37.412;2022-07-23T05:40:05;99023.53;;;22.74;53.51
69035;BME280;56091;55.756;37.412;2022-07-23T05:45:10;99019.06;;;22.82;53.31
69035;BME280;56091;55.756;37.412;2022-07-23T05:50:15;99026.22;;;23.08;53.33
69035;BME280;56091;55.756;37.412;2022-07-23T05:55:23;99020.59;;;23.04;52.80
69035;BME280;56091;55.756;37.412;2022-07-23T06:00:24;99024.13;;;23.42;51.65
69035;BME280;56091;55.756;37.412;2022-07-23T06:05:25;99014.38;;;23.44;51.54
69035;BME280;56091;55.756;37.412;2022-07-23T06:10:28;99024.34;;;23.49;51.20
69035;BME280;56091;55.756;37.412;2022-07-23T06:15:30;99026.22;;;23.73;51.22
69035;BME280;56091;55.756;37.412;2022-07-23T06:20:32;99013.28;;;23.73;50.56
69035;BME280;56091;55.756;37.412;2022-07-23T06:25:33;99011.50;;;23.93;50.43
69035;BME280;56091;55.756;37.412;2022-07-23T06:30:34;99009.69;;;24.13;50.45
69035;BME280;56091;55.756;37.412;2022-07-23T06:35:43;99011.38;;;24.18;50.08
69035;BME280;56091;55.756;37.412;2022-07-23T06:40:43;99006.97;;;24.29;49.66
69035;BME280;56091;55.756;37.412;2022-07-23T06:45:45;98992.47;;;24.32;49.61
69035;BME280;56091;55.756;37.412;2022-07-23T06:50:46;99020.63;;;24.54;49.75
69035;BME280;56091;55.756;37.412;2022-07-23T06:55:47;99018.50;;;24.63;49.03
69035;BME280;56091;55.756;37.412;2022-07-23T07:00:48;99017.69;;;24.63;47.96
69035;BME280;56091;55.756;37.412;2022-07-23T07:05:55;99002.84;;;24.67;47.56
69035;BME280;56091;55.756;37.412;2022-07-23T07:11:05;99010.75;;;24.85;47.72
69035;BME280;56091;55.756;37.412;2022-07-23T07:16:08;99012.28;;;24.82;47.84
69035;BME280;56091;55.756;37.412;2022-07-23T07:21:12;99008.16;;;24.92;45.91
69035;BME280;56091;55.756;37.412;2022-07-23T07:26:13;98990.09;;;25.10;45.67
69035;BME280;56091;55.756;37.412;2022-07-23T07:31:14;99012.38;;;25.73;45.21
69035;BME280;56091;55.756;37.412;2022-07-23T07:36:14;98954.88;;;25.59;43.98
69035;BME280;56091;55.756;37.412;2022-07-23T07:41:15;98985.00;;;26.03;43.20
69035;BME280;56091;55.756;37.412;2022-07-23T07:46:21;99018.25;;;26.29;43.19
69035;BME280;56091;55.756;37.412;2022-07-23T07:51:26;98990.75;;;26.17;42.30
69035;BME280;56091;55.756;37.412;2022-07-23T07:56:27;99012.50;;;26.61;41.78
69035;BME280;56091;55.756;37.412;2022-07-23T08:01:31;99011.44;;;26.93;41.24
69035;BME280;56091;55.756;37.412;2022-07-23T08:06:32;99003.03;;;27.12;40.55
69035;BME280;56091;55.756;37.412;2022-07-23T08:11:32;98999.00;;;27.06;39.37
69035;BME280;56091;55.756;37.412;2022-07-23T08:16:33;99005.91;;;27.19;39.37
69035;BME280;56091;55.756;37.412;2022-07-23T08:21:34;98991.63;;;27.40;39.06
69035;BME280;56091;55.756;37.412;2022-07-23T08:26:35;99009.44;;;27.73;39.00
69035;BME280;56091;55.756;37.412;2022-07-23T08:31:36;99008.09;;;27.90;38.59
69035;BME280;56091;55.756;37.412;2022-07-23T08:36:37;98997.28;;;27.81;38.05
69035;BME280;56091;55.756;37.412;2022-07-23T08:41:40;98996.34;;;27.70;39.14
69035;BME280;56091;55.756;37.412;2022-07-23T08:46:43;98984.63;;;27.50;39.43
69035;BME280;56091;55.756;37.412;2022-07-23T08:51:46;98991.09;;;27.31;39.82
69035;BME280;56091;55.756;37.412;2022-07-23T08:56:47;98988.13;;;27.20;39.70
69035;BME280;56091;55.756;37.412;2022-07-23T09:01:48;98997.88;;;27.37;39.33
69035;BME280;56091;55.756;37.412;2022-07-23T09:06:49;98991.09;;;27.31;39.78
69035;BME280;56091;55.756;37.412;2022-07-23T09:12:02;98996.81;;;27.19;38.85
69035;BME280;56091;55.756;37.412;2022-07-23T09:17:17;98968.19;;;27.07;39.20
69035;BME280;56091;55.756;37.412;2022-07-23T09:22:25;98981.84;;;27.23;38.63
69035;BME280;56091;55.756;37.412;2022-07-23T09:27:48;98982.22;;;27.22;38.90
69035;BME280;56091;55.756;37.412;2022-07-23T09:33:28;98979.97;;;27.58;37.21
69035;BME280;56091;55.756;37.412;2022-07-23T09:38:29;98979.00;;;27.77;37.28
69035;BME280;56091;55.756;37.412;2022-07-23T09:43:29;98970.63;;;28.03;36.26
69035;BME280;56091;55.756;37.412;2022-07-23T09:48:30;98971.09;;;28.50;35.52
69035;BME280;56091;55.756;37.412;2022-07-23T09:53:45;98970.19;;;28.80;35.21
69035;BME280;56091;55.756;37.412;2022-07-23T09:58:50;98973.78;;;28.43;36.13
69035;BME280;56091;55.756;37.412;2022-07-23T10:04:15;98950.44;;;28.03;36.45
69035;BME280;56091;55.756;37.412;2022-07-23T10:09:39;98962.50;;;28.21;36.15
69035;BME280;56091;55.756;37.412;2022-07-23T10:15:18;98945.47;;;28.19;36.95
69035;BME280;56091;55.756;37.412;2022-07-23T10:20:19;98949.00;;;27.82;37.11
69035;BME280;56091;55.756;37.412;2022-07-23T10:25:30;98951.78;;;27.82;36.43
69035;BME280;56091;55.756;37.412;2022-07-23T10:30:40;98950.56;;;27.80;36.18
69035;BME280;56091;55.756;37.412;2022-07-23T10:35:58;98946.56;;;28.11;35.40
69035;BME280;56091;55.756;37.412;2022-07-23T10:41:04;98935.13;;;28.16;35.04
69035;BME280;56091;55.756;37.412;2022-07-23T10:46:24;98926.66;;;28.43;35.02
69035;BME280;56091;55.756;37.412;2022-07-23T10:51:31;98924.03;;;28.57;34.76
69035;BME280;56091;55.756;37.412;2022-07-23T11:02:22;98912.22;;;29.34;32.81
69035;BME280;56091;55.756;37.412;2022-07-23T11:07:27;98909.88;;;29.39;32.29
69035;BME280;56091;55.756;37.412;2022-07-23T11:17:30;98910.25;;;29.38;33.97
69035;BME280;56091;55.756;37.412;2022-07-23T11:22:35;98919.31;;;29.20;34.10
69035;BME280;56091;55.756;37.412;2022-07-23T11:27:44;98909.97;;;28.88;33.90
69035;BME280;56091;55.756;37.412;2022-07-23T11:32:45;98895.56;;;28.68;34.46
69035;BME280;56091;55.756;37.412;2022-07-23T11:37:47;98902.31;;;28.70;33.32
69035;BME280;56091;55.756;37.412;2022-07-23T11:42:59;98901.69;;;28.98;33.08
69035;BME280;56091;55.756;37.412;2022-07-23T11:48:06;98900.75;;;28.69;33.52
69035;BME280;56091;55.756;37.412;2022-07-23T11:53:07;98904.09;;;28.45;33.62
69035;BME280;56091;55.756;37.412;2022-07-23T11:58:08;98873.59;;;28.45;33.31
69035;BME280;56091;55.756;37.412;2022-07-23T12:03:09;98877.81;;;28.79;32.73
69035;BME280;56091;55.756;37.412;2022-07-23T12:08:10;98882.66;;;28.93;32.72
69035;BME280;56091;55.756;37.412;2022-07-23T12:13:14;98878.06;;;28.56;34.44
69035;BME280;56091;55.756;37.412;2022-07-23T12:18:19;98869.72;;;28.56;34.67
69035;BME280;56091;55.756;37.412;2022-07-23T12:23:25;98870.00;;;28.99;33.99
69035;BME280;56091;55.756;37.412;2022-07-23T12:28:31;98866.97;;;29.23;33.40
69035;BME280;56091;55.756;37.412;2022-07-23T12:33:38;98865.00;;;29.30;33.67
69035;BME280;56091;55.756;37.412;2022-07-23T12:38:49;98857.28;;;30.54;31.05
69035;BME280;56091;55.756;37.412;2022-07-23T12:43:50;98851.06;;;34.39;25.80
69035;BME280;56091;55.756;37.412;2022-07-23T12:48:54;98856.19;;;38.40;20.25
69035;BME280;56091;55.756;37.412;2022-07-23T12:54:03;98855.47;;;40.50;17.83
69035;BME280;56091;55.756;37.412;2022-07-23T12:59:23;98842.91;;;41.25;16.80
69035;BME280;56091;55.756;37.412;2022-07-23T13:04:25;98844.28;;;40.09;17.49
69035;BME280;56091;55.756;37.412;2022-07-23T13:09:28;98860.34;;;35.39;22.73
69035;BME280;56091;55.756;37.412;2022-07-23T13:14:29;98841.31;;;33.11;26.25
69035;BME280;56091;55.756;37.412;2022-07-23T13:19:30;98838.72;;;32.93;26.74
69035;BME280;56091;55.756;37.412;2022-07-23T13:24:33;98837.69;;;33.14;26.29
69035;BME280;56091;55.756;37.412;2022-07-23T13:29:34;98812.06;;;31.42;28.84
69035;BME280;56091;55.756;37.412;2022-07-23T13:34:35;98834.44;;;33.19;26.76
69035;BME280;56091;55.756;37.412;2022-07-23T13:39:41;98825.59;;;38.17;19.77
69035;BME280;56091;55.756;37.412;2022-07-23T13:44:42;98832.88;;;40.68;17.20
69035;BME280;56091;55.756;37.412;2022-07-23T13:49:43;98824.69;;;43.19;14.66
69035;BME280;56091;55.756;37.412;2022-07-23T13:54:44;98819.50;;;45.69;12.98
69035;BME280;56091;55.756;37.412;2022-07-23T13:59:45;98821.03;;;46.79;11.86
69035;BME280;56091;55.756;37.412;2022-07-23T14:04:46;98815.69;;;45.46;12.31
69035;BME280;56091;55.756;37.412;2022-07-23T14:09:46;98803.81;;;44.90;12.35
69035;BME280;56091;55.756;37.412;2022-07-23T14:14:50;98808.78;;;44.95;12.10
69035;BME280;56091;55.756;37.412;2022-07-23T14:19:51;98786.63;;;44.78;12.51
69035;BME280;56091;55.756;37.412;2022-07-23T14:24:52;98790.16;;;43.85;13.36
69035;BME280;56091;55.756;37.412;2022-07-23T14:29:53;98810.69;;;43.15;13.57
69035;BME280;56091;55.756;37.412;2022-07-23T14:34:55;98802.00;;;42.89;13.45
69035;BME280;56091;55.756;37.412;2022-07-23T14:39:56;98806.69;;;42.92;13.34
69035;BME280;56091;55.756;37.412;2022-07-23T14:45:00;98798.53;;;42.70;14.18
69035;BME280;56091;55.756;37.412;2022-07-23T14:50:04;98778.41;;;42.83;13.78
69035;BME280;56091;55.756;37.412;2022-07-23T14:55:06;98793.00;;;43.85;13.26
69035;BME280;56091;55.756;37.412;2022-07-23T15:00:07;98782.84;;;45.19;12.03
69035;BME280;56091;55.756;37.412;2022-07-23T15:05:10;98783.44;;;44.71;12.92
69035;BME280;56091;55.756;37.412;2022-07-23T15:10:14;98786.50;;;44.67;12.53
69035;BME280;56091;55.756;37.412;2022-07-23T15:15:15;98761.94;;;43.46;13.15
69035;BME280;56091;55.756;37.412;2022-07-23T15:20:17;98782.03;;;43.28;13.91
69035;BME280;56091;55.756;37.412;2022-07-23T15:25:18;98780.97;;;44.11;12.84
69035;BME280;56091;55.756;37.412;2022-07-23T15:30:19;98775.53;;;42.14;14.29
69035;BME280;56091;55.756;37.412;2022-07-23T15:35:20;98780.34;;;41.74;14.80
69035;BME280;56091;55.756;37.412;2022-07-23T15:40:21;98760.06;;;42.39;14.15
69035;BME280;56091;55.756;37.412;2022-07-23T15:45:22;98762.66;;;41.04;15.78
69035;BME280;56091;55.756;37.412;2022-07-23T15:50:24;98763.03;;;40.50;15.89
69035;BME280;56091;55.756;37.412;2022-07-23T15:55:25;98766.78;;;40.84;16.45
69035;BME280;56091;55.756;37.412;2022-07-23T16:00:26;98731.97;;;39.95;17.24
69035;BME280;56091;55.756;37.412;2022-07-23T16:05:26;98762.41;;;39.50;18.09
69035;BME280;56091;55.756;37.412;2022-07-23T16:10:27;98752.31;;;36.21;21.47
69035;BME280;56091;55.756;37.412;2022-07-23T16:15:28;98741.66;;;34.73;23.39
69035;BME280;56091;55.756;37.412;2022-07-23T16:20:29;98743.00;;;34.25;24.43
69035;BME280;56091;55.756;37.412;2022-07-23T16:25:30;98756.16;;;32.61;26.47
69035;BME280;56091;55.756;37.412;2022-07-23T16:30:31;98750.13;;;31.80;27.65
69035;BME280;56091;55.756;37.412;2022-07-23T16:35:33;98748.63;;;30.98;28.94
69035;BME280;56091;55.756;37.412;2022-07-23T16:40:37;98755.09;;;30.66;29.97
69035;BME280;56091;55.756;37.412;2022-07-23T16:46:00;98722.25;;;29.96;31.19
69035;BME280;56091;55.756;37.412;2022-07-23T16:51:01;98740.13;;;29.73;32.11
69035;BME280;56091;55.756;37.412;2022-07-23T16:56:05;98687.25;;;29.12;32.96
69035;BME280;56091;55.756;37.412;2022-07-23T17:01:06;98737.66;;;29.25;33.83
69035;BME280;56091;55.756;37.412;2022-07-23T17:06:07;98754.59;;;28.98;33.86
69035;BME280;56091;55.756;37.412;2022-07-23T17:11:08;98752.94;;;28.69;34.16
69035;BME280;56091;55.756;37.412;2022-07-23T17:16:09;98746.38;;;28.36;35.06
69035;BME280;56091;55.756;37.412;2022-07-23T17:21:10;98746.56;;;28.06;35.80
69035;BME280;56091;55.756;37.412;2022-07-23T17:26:12;98761.41;;;27.83;36.36
69035;BME280;56091;55.756;37.412;2022-07-23T17:31:13;98755.72;;;27.65;37.23
69035;BME280;56091;55.756;37.412;2022-07-23T17:36:17;98766.66;;;27.47;36.97
69035;BME280;56091;55.756;37.412;2022-07-23T17:41:18;98772.03;;;27.33;37.42
69035;BME280;56091;55.756;37.412;2022-07-23T17:46:22;98782.47;;;27.16;37.84
69035;BME280;56091;55.756;37.412;2022-07-23T17:51:25;98767.78;;;27.08;38.48
69035;BME280;56091;55.756;37.412;2022-07-23T17:56:26;98765.13;;;26.85;38.96
69035;BME280;56091;55.756;37.412;2022-07-23T18:01:30;98764.81;;;26.60;39.56
69035;BME280;56091;55.756;37.412;2022-07-23T18:06:34;98781.59;;;26.48;39.88
69035;BME280;56091;55.756;37.412;2022-07-23T18:11:35;98777.50;;;26.38;40.15
69035;BME280;56091;55.756;37.412;2022-07-23T18:16:42;98732.34;;;26.00;40.67
69035;BME280;56091;55.756;37.412;2022-07-23T18:21:43;98779.84;;;26.09;40.63
69035;BME280;56091;55.756;37.412;2022-07-23T18:26:44;98777.72;;;25.99;41.85
69035;BME280;56091;55.756;37.412;2022-07-23T18:31:46;98782.53;;;25.83;42.23
69035;BME280;56091;55.756;37.412;2022-07-23T18:36:47;98786.28;;;25.71;42.36
69035;BME280;56091;55.756;37.412;2022-07-23T18:41:49;98776.97;;;25.56;42.70
69035;BME280;56091;55.756;37.412;2022-07-23T18:46:52;98793.44;;;25.52;43.28
69035;BME280;56091;55.756;37.412;2022-07-23T18:51:53;98785.34;;;25.40;43.83
69035;BME280;56091;55.756;37.412;2022-07-23T18:56:55;98793.06;;;25.31;43.80
69035;BME280;56091;55.756;37.412;2022-07-23T19:01:56;98804.66;;;25.21;43.77
69035;BME280;56091;55.756;37.412;2022-07-23T19:06:57;98788.81;;;24.98;44.65
69035;BME280;56091;55.756;37.412;2022-07-23T19:11:58;98777.53;;;24.84;46.02
69035;BME280;56091;55.756;37.412;2022-07-23T19:16:59;98784.31;;;24.70;45.54
69035;BME280;56091;55.756;37.412;2022-07-23T19:22:02;98804.78;;;24.69;46.48
69035;BME280;56091;55.756;37.412;2022-07-23T19:27:06;98812.38;;;24.57;45.96
69035;BME280;56091;55.756;37.412;2022-07-23T19:32:07;98799.31;;;24.38;46.48
69035;BME280;56091;55.756;37.412;2022-07-23T19:37:08;98793.75;;;24.18;46.70
69035;BME280;56091;55.756;37.412;2022-07-23T19:42:13;98795.88;;;24.09;47.07
69035;BME280;56091;55.756;37.412;2022-07-23T19:47:13;98803.44;;;24.12;46.48
69035;BME280;56091;55.756;37.412;2022-07-23T19:52:14;98820.50;;;24.17;46.51
69035;BME280;56091;55.756;37.412;2022-07-23T19:57:15;98829.56;;;24.18;46.86
69035;BME280;56091;55.756;37.412;2022-07-23T20:02:16;98813.94;;;24.06;46.85
69035;BME280;56091;55.756;37.412;2022-07-23T20:07:17;98834.53;;;24.12;47.53
69035;BME280;56091;55.756;37.412;2022-07-23T20:12:20;98814.53;;;24.00;47.33
69035;BME280;56091;55.756;37.412;2022-07-23T20:17:21;98817.22;;;23.96;47.78
69035;BME280;56091;55.756;37.412;2022-07-23T20:22:22;98828.16;;;23.92;47.77
69035;BME280;56091;55.756;37.412;2022-07-23T20:27:23;98832.84;;;23.92;47.94
69035;BME280;56091;55.756;37.412;2022-07-23T20:32:24;98828.16;;;23.92;48.06
69035;BME280;56091;55.756;37.412;2022-07-23T20:37:25;98823.09;;;23.94;48.02
69035;BME280;56091;55.756;37.412;2022-07-23T20:42:26;98815.53;;;23.91;48.25
69035;BME280;56091;55.756;37.412;2022-07-23T20:47:27;98818.63;;;23.90;49.41
69035;BME280;56091;55.756;37.412;2022-07-23T20:52:28;98816.22;;;23.88;48.76
69035;BME280;56091;55.756;37.412;2022-07-23T20:57:29;98807.19;;;23.88;46.71
69035;BME280;56091;55.756;37.412;2022-07-23T21:02:30;98800.69;;;23.80;48.84
69035;BME280;56091;55.756;37.412;2022-07-23T21:07:30;98794.88;;;23.69;47.92
69035;BME280;56091;55.756;37.412;2022-07-23T21:12:34;98803.94;;;23.70;46.84
69035;BME280;56091;55.756;37.412;2022-07-23T21:17:35;98782.44;;;23.59;47.63
69035;BME280;56091;55.756;37.412;2022-07-23T21:22:36;98795.84;;;23.61;48.16
69035;BME280;56091;55.756;37.412;2022-07-23T21:27:36;98793.34;;;23.56;48.38
69035;BME280;56091;55.756;37.412;2022-07-23T21:32:40;98783.66;;;23.46;49.30
69035;BME280;56091;55.756;37.412;2022-07-23T21:37:41;98775.72;;;23.29;49.62
69035;BME280;56091;55.756;37.412;2022-07-23T21:42:41;98779.66;;;23.28;49.60
69035;BME280;56091;55.756;37.412;2022-07-23T21:47:42;98782.22;;;23.21;49.46
69035;BME280;56091;55.756;37.412;2022-07-23T21:52:43;98778.09;;;23.14;48.74
69035;BME280;56091;55.756;37.412;2022-07-23T21:57:44;98765.41;;;23.10;49.20
69035;BME280;56091;55.756;37.412;2022-07-23T22:02:45;98749.25;;;23.08;50.66
69035;BME280;56091;55.756;37.412;2022-07-23T22:07:46;98765.28;;;23.06;49.98
69035;BME280;56091;55.756;37.412;2022-07-23T22:12:47;98757.88;;;22.94;50.94
69035;BME280;56091;55.756;37.412;2022-07-23T22:17:48;98771.06;;;22.89;50.67
69035;BME280;56091;55.756;37.412;2022-07-23T22:22:50;98755.97;;;22.83;51.34
69035;BME280;56091;55.756;37.412;2022-07-23T22:27:51;98759.47;;;22.67;51.60
69035;BME280;56091;55.756;37.412;2022-07-23T22:32:52;98760.72;;;22.57;51.72
69035;BME280;56091;55.756;37.412;2022-07-23T22:37:52;98754.31;;;22.53;51.38
69035;BME280;56091;55.756;37.412;2022-07-23T22:42:53;98769.34;;;22.56;52.87
69035;BME280;56091;55.756;37.412;2022-07-23T22:47:54;98769.56;;;22.51;52.31
69035;BME280;56091;55.756;37.412;2022-07-23T22:52:55;98765.59;;;22.36;54.10
69035;BME280;56091;55.756;37.412;2022-07-23T22:57:55;98760.09;;;22.23;53.70
69035;BME280;56091;55.756;37.412;2022-07-23T23:02:56;98762.03;;;22.11;54.08
69035;BME280;56091;55.756;37.412;2022-07-23T23:07:57;98734.94;;;21.84;54.45
69035;BME280;56091;55.756;37.412;2022-07-23T23:12:58;98760.22;;;21.90;54.37
69035;BME280;56091;55.756;37.412;2022-07-23T23:17:59;98738.69;;;21.68;54.14
69035;BME280;56091;55.756;37.412;2022-07-23T23:22:59;98757.94;;;21.80;53.96
69035;BME280;56091;55.756;37.412;2022-07-23T23:28:06;98750.13;;;21.70;55.50
69035;BME280;56091;55.756;37.412;2022-07-23T23:33:06;98747.13;;;21.62;55.84
69035;BME280;56091;55.756;37.412;2022-07-23T23:38:10;98749.88;;;21.50;55.10
69035;BME280;56091;55.756;37.412;2022-07-23T23:43:11;98749.94;;;21.41;55.03
69035;BME280;56091;55.756;37.412;2022-07-23T23:48:12;98747.34;;;21.45;54.81
69035;BME280;56091;55.756;37.412;2022-07-23T23:53:13;98745.50;;;21.49;54.73
69035;BME280;56091;55.756;37.412;2022-07-23T23:58:14;98746.47;;;21.53;53.90
